Creole Rivers — WDC3300 — position and weather

sailwx.info

Track history (hours):
 
Tides and Currents Weather Stations Pressure Air Temp Water Temp Dewpoint Dewpoint Depression Visibility Wind Speed Wind Dir Waves Ship Positions

Creole Rivers

Owner: LeBeouf Bros. Towing, L.L.C, Houma, LA. More information available from US FCC via Universal Licensing System and Coast Guard Vessel Documentation Center.

Last reported at 2018-May-20 21:30 UTC. Time now 2018-May-20 21:51 UTC.
Position N 30°02' W 094°03'.

Length 20 m; draft 3 m.

Type: Tug. MMSI: 367005470.

Date/timePositionNaut miles runAvg speedWind from/ knotsBaromVisibWave heightAir tempDewpointWater temp
2018-May-20 21:30N 30°02' W 094°03'0 0.0
2018-May-20 21:00N 30°02' W 094°03'0 0.0
2018-May-20 20:30N 30°02' W 094°03'0 0.0
2018-May-20 20:00N 30°02' W 094°03'0 0.0
2018-May-20 19:30N 30°02' W 094°03'0 0.0
2018-May-20 19:01N 30°02' W 094°03'0 0.0
2018-May-20 18:30N 30°02' W 094°03'0 0.0
2018-May-20 18:00N 30°02' W 094°03'0 0.0
2018-May-20 17:30N 30°02' W 094°03'0 0.0
2018-May-20 17:00N 30°02' W 094°03'0 0.0
2018-May-20 16:30N 30°02' W 094°03'0 0.0
2018-May-20 16:00N 30°02' W 094°03'0 0.0
2018-May-20 15:30N 30°02' W 094°03'0 0.0
2018-May-20 15:00N 30°02' W 094°03'0 0.0
2018-May-20 14:30N 30°02' W 094°03'0 0.0
2018-May-20 14:01N 30°02' W 094°03'0 0.0
2018-May-20 13:30N 30°02' W 094°03'0 0.0
2018-May-20 13:00N 30°02' W 094°03'0 0.0
2018-May-20 12:30N 30°02' W 094°03'0 0.0
2018-May-20 12:00N 30°02' W 094°03'0 0.0
2018-May-20 11:30N 30°02' W 094°03'0 0.0
2018-May-20 11:00N 30°02' W 094°03'0 0.0
2018-May-20 10:30N 30°02' W 094°03'0 0.0
2018-May-20 10:00N 30°02' W 094°03'0 0.0
2018-May-20 09:31N 30°02' W 094°03'0 0.0
2018-May-20 09:00N 30°02' W 094°03'0 0.0
2018-May-20 08:30N 30°02' W 094°03'0 0.0
2018-May-20 08:00N 30°02' W 094°03'0 0.0
2018-May-20 07:30N 30°02' W 094°03'0 0.0
2018-May-20 07:00N 30°02' W 094°03'0 0.0
2018-May-20 06:31N 30°02' W 094°03'0 0.0
2018-May-20 06:00N 30°02' W 094°03'0 0.0
2018-May-20 05:30N 30°02' W 094°03'0 0.0
2018-May-20 05:00N 30°02' W 094°03'2 3.5
2018-May-20 04:30N 30°01' W 094°01'3 6.6
2018-May-20 04:00N 30°01' W 093°57'3 6.1
2018-May-20 03:30N 29°59' W 093°54'3 5.9
2018-May-20 03:00N 29°58' W 093°51'3 6.9
2018-May-20 02:30N 29°59' W 093°47'4 7.2
2018-May-20 02:00N 30°02' W 093°44'15 6.1
2018-May-19 23:32N 30°04' W 093°27'0 6.3
2018-May-19 23:30N 30°04' W 093°27'3 6.3
2018-May-19 23:00N 30°04' W 093°23'3 5.7
2018-May-19 22:30N 30°05' W 093°20'2 4.1
2018-May-19 22:00N 30°06' W 093°19'0 0.0
2018-May-19 21:30N 30°06' W 093°19'0 0.0
2018-May-19 20:58N 30°06' W 093°19'0 0.0
2018-May-19 20:30N 30°06' W 093°19'1 1.8
2018-May-19 20:00N 30°06' W 093°20'2 4.0
2018-May-19 19:30N 30°08' W 093°19'0 0.0
2018-May-19 19:00N 30°08' W 093°19'0 0.0
2018-May-19 18:30N 30°08' W 093°19'0 0.0
2018-May-19 18:00N 30°08' W 093°19'0 0.0
2018-May-19 17:30N 30°08' W 093°19'0 0.0
2018-May-19 17:00N 30°08' W 093°19'0 0.0
2018-May-19 16:30N 30°08' W 093°19'0 0.0
2018-May-19 16:00N 30°08' W 093°19'0 0.0
2018-May-19 15:29N 30°08' W 093°19'0 0.0
2018-May-19 15:00N 30°08' W 093°19'0 0.0
2018-May-19 14:30N 30°08' W 093°19'0 0.0
2018-May-19 14:00N 30°08' W 093°19'0 0.0
2018-May-19 13:30N 30°08' W 093°19'0 0.0
2018-May-19 13:00N 30°08' W 093°19'0 0.0
2018-May-19 12:30N 30°08' W 093°19'0 0.0
2018-May-19 12:00N 30°08' W 093°19'0 0.0
2018-May-19 11:30N 30°08' W 093°19'0 0.0
2018-May-19 11:00N 30°08' W 093°19'0 0.0
2018-May-19 10:30N 30°08' W 093°19'0 0.0
2018-May-19 10:00N 30°08' W 093°19'1 3.0
2018-May-19 09:30N 30°07' W 093°20'2 4.3
2018-May-19 09:00N 30°05' W 093°20'2 4.1
2018-May-19 08:30N 30°04' W 093°22'0 0.5
2018-May-19 08:00N 30°04' W 093°23'0 0.2
2018-May-19 07:30N 30°04' W 093°23'2 4.4
2018-May-19 07:00N 30°04' W 093°25'2 4.6
2018-May-19 06:30N 30°04' W 093°28'13 4.4
2018-May-19 03:30N 30°03' W 093°43'2 4.9
2018-May-19 03:00N 30°01' W 093°45'3 5.3
2018-May-19 02:30N 29°59' W 093°47'3 5.3
2018-May-19 02:00N 29°59' W 093°50'2 4.5
2018-May-19 01:30N 29°59' W 093°53'3 6.5
2018-May-19 01:00N 29°60' W 093°56'3 5.2
2018-May-19 00:30N 30°01' W 093°59'3 5.8
2018-May-19 00:00N 30°02' W 094°02'1 1.4
2018-May-18 23:30N 30°02' W 094°03'0 0.0
2018-May-18 22:59N 30°02' W 094°03'0 0.0
2018-May-18 22:30N 30°02' W 094°03'0 0.0
2018-May-18 22:00N 30°02' W 094°03'0 0.0
2018-May-18 21:30N 30°02' W 094°03'0 0.0
2018-May-18 21:00N 30°02' W 094°03'0 0.0
2018-May-18 20:30N 30°02' W 094°03'0 0.0
2018-May-18 20:00N 30°02' W 094°03'0 0.0
2018-May-18 19:30N 30°02' W 094°03'0 0.0
2018-May-18 19:00N 30°02' W 094°03'0 0.0
2018-May-18 18:30N 30°02' W 094°03'0 0.0
2018-May-18 18:01N 30°02' W 094°03'0 0.0
2018-May-18 17:30N 30°02' W 094°03'0 0.0
2018-May-18 17:00N 30°02' W 094°03'0 0.0
2018-May-18 16:30N 30°02' W 094°03'0 0.0
2018-May-18 16:00N 30°02' W 094°03'0 0.0
2018-May-18 15:29N 30°02' W 094°03'0 0.0
2018-May-18 15:00N 30°02' W 094°03'0 0.0
2018-May-18 14:30N 30°02' W 094°03'0 0.0
2018-May-18 14:00N 30°02' W 094°03'0 0.0
2018-May-18 13:30N 30°02' W 094°03'0 0.0
2018-May-18 13:00N 30°02' W 094°03'0 0.0
2018-May-18 12:30N 30°02' W 094°03'0 0.0
2018-May-18 12:00N 30°02' W 094°03'0 0.0
2018-May-18 11:30N 30°02' W 094°03'0 0.0
2018-May-18 11:00N 30°02' W 094°03'0 0.0
2018-May-18 10:30N 30°02' W 094°03'0 0.0
2018-May-18 10:00N 30°02' W 094°03'0 0.0
2018-May-18 09:30N 30°02' W 094°03'0 0.0
2018-May-18 08:59N 30°02' W 094°03'0 0.0
2018-May-18 08:30N 30°02' W 094°03'0 0.0
2018-May-18 08:00N 30°02' W 094°03'0 0.0
2018-May-18 07:30N 30°02' W 094°03'0 0.0
2018-May-18 07:00N 30°02' W 094°03'0 0.0
2018-May-18 06:30N 30°02' W 094°03'0 0.0
2018-May-18 06:00N 30°02' W 094°03'0 0.0
2018-May-18 05:30N 30°02' W 094°03'0 0.0
2018-May-18 05:00N 30°02' W 094°03'0 0.0
2018-May-18 04:30N 30°02' W 094°03'0 0.0
2018-May-18 04:00N 30°02' W 094°03'0 0.0
2018-May-18 03:30N 30°02' W 094°03'0 0.0
2018-May-18 03:00N 30°02' W 094°03'0 0.0
2018-May-18 02:29N 30°02' W 094°03'0 0.0
2018-May-18 02:00N 30°02' W 094°03'0 0.0
2018-May-18 01:30N 30°02' W 094°03'0 0.0
2018-May-18 00:59N 30°02' W 094°03'0 0.0
2018-May-18 00:30N 30°02' W 094°03'0 0.0
2018-May-18 00:00N 30°02' W 094°03'1 1.5
2018-May-17 23:30N 30°02' W 094°02'3 6.3
2018-May-17 23:00N 30°01' W 093°59'3 5.5
2018-May-17 22:30N 29°59' W 093°56'3 6.5
2018-May-17 22:00N 29°59' W 093°52'2 5.0
2018-May-17 21:30N 29°59' W 093°49'3 6.6
2018-May-17 21:00N 30°00' W 093°46'2 3.3
2018-May-17 20:30N 30°02' W 093°44'15 5.8
2018-May-17 17:53N 30°04' W 093°27'2 5.9
2018-May-17 17:30N 30°04' W 093°24'3 5.8
2018-May-17 17:00N 30°04' W 093°21'3 5.4
2018-May-17 16:30N 30°06' W 093°20'2 4.1
2018-May-17 16:00N 30°08' W 093°19'0 0.0
2018-May-17 15:30N 30°08' W 093°19'0 0.0
2018-May-17 15:00N 30°08' W 093°19'0 0.0
2018-May-17 14:30N 30°08' W 093°19'0 0.0
2018-May-17 14:00N 30°08' W 093°19'0 0.0
2018-May-17 13:30N 30°08' W 093°19'0 0.0
2018-May-17 13:00N 30°08' W 093°19'0 0.0
2018-May-17 12:30N 30°08' W 093°19'0 0.0
2018-May-17 12:00N 30°08' W 093°19'0 0.0
2018-May-17 11:30N 30°08' W 093°19'0 0.0
2018-May-17 11:00N 30°08' W 093°19'0 0.0
2018-May-17 10:30N 30°08' W 093°19'0 0.0
2018-May-17 10:00N 30°08' W 093°19'0 0.0
2018-May-17 09:30N 30°08' W 093°19'0 0.0
2018-May-17 09:00N 30°08' W 093°19'0 0.0
2018-May-17 08:30N 30°08' W 093°19'0 0.0
2018-May-17 08:00N 30°08' W 093°19'0 0.0
2018-May-17 07:30N 30°08' W 093°19'0 0.0
2018-May-17 07:00N 30°08' W 093°19'0 0.3
2018-May-17 06:30N 30°08' W 093°20'0 0.1
2018-May-17 06:00N 30°08' W 093°19'0 0.0
2018-May-17 05:30N 30°08' W 093°19'0 0.0
2018-May-17 05:00N 30°08' W 093°19'0 0.0
2018-May-17 04:30N 30°08' W 093°19'0 0.0
2018-May-17 04:00N 30°08' W 093°19'0 0.0
2018-May-17 03:30N 30°08' W 093°19'0 0.0
2018-May-17 03:00N 30°08' W 093°19'0 0.0
2018-May-17 02:30N 30°08' W 093°19'0 0.0
2018-May-17 02:00N 30°08' W 093°19'0 0.0
2018-May-17 01:30N 30°08' W 093°19'0 0.0
2018-May-17 01:00N 30°08' W 093°19'0 0.0
2018-May-17 00:30N 30°08' W 093°19'0 0.0
2018-May-17 00:00N 30°08' W 093°19'0 0.0
2018-May-16 23:30N 30°08' W 093°19'0 0.0
2018-May-16 23:00N 30°08' W 093°19'0 0.0
2018-May-16 22:30N 30°08' W 093°19'0 0.0
2018-May-16 22:00N 30°08' W 093°19'0 0.1
2018-May-16 21:30N 30°08' W 093°19'0 0.0
2018-May-16 21:00N 30°08' W 093°19'0 0.0
2018-May-16 20:30N 30°08' W 093°19'0 0.0
2018-May-16 20:00N 30°08' W 093°19'0 0.0
2018-May-16 19:30N 30°08' W 093°19'0 0.0
2018-May-16 19:00N 30°08' W 093°19'0 0.0
2018-May-16 18:30N 30°08' W 093°19'0 0.0
2018-May-16 18:00N 30°08' W 093°19'0 0.0
2018-May-16 17:30N 30°08' W 093°19'0 0.0
2018-May-16 17:00N 30°08' W 093°19'0 0.0
2018-May-16 16:30N 30°08' W 093°19'0 0.0
2018-May-16 16:00N 30°08' W 093°19'0 0.0
2018-May-16 15:30N 30°08' W 093°19'0 0.0
2018-May-16 15:00N 30°08' W 093°19'0 0.0
2018-May-16 14:30N 30°08' W 093°19'0 0.0
2018-May-16 14:00N 30°08' W 093°19'0 0.0
2018-May-16 13:30N 30°08' W 093°19'0 0.0
2018-May-16 13:00N 30°08' W 093°19'0 0.0
2018-May-16 12:30N 30°08' W 093°19'0 0.0
2018-May-16 12:00N 30°08' W 093°19'0 0.0
2018-May-16 11:30N 30°08' W 093°19'0 0.0
2018-May-16 11:00N 30°08' W 093°19'0 0.0
2018-May-16 10:30N 30°08' W 093°19'0 0.0
2018-May-16 10:00N 30°08' W 093°19'0 0.0
2018-May-16 09:30N 30°08' W 093°19'0 0.0
2018-May-16 09:00N 30°08' W 093°19'0 0.0
2018-May-16 08:30N 30°08' W 093°19'0 0.0
2018-May-16 08:00N 30°08' W 093°19'0 0.0
2018-May-16 07:30N 30°08' W 093°19'0 0.1
2018-May-16 07:00N 30°08' W 093°19'0 0.0
2018-May-16 06:30N 30°08' W 093°19'0 0.0
2018-May-16 06:00N 30°08' W 093°19'0 0.0
2018-May-16 05:30N 30°08' W 093°19'0 0.0
2018-May-16 05:00N 30°08' W 093°19'0 0.0
2018-May-16 04:30N 30°08' W 093°19'0 0.0
2018-May-16 04:00N 30°08' W 093°19'0 0.0
2018-May-16 03:30N 30°08' W 093°19'0 0.0
2018-May-16 03:00N 30°08' W 093°19'2 3.0
2018-May-16 02:30N 30°07' W 093°20'2 4.0
2018-May-16 02:00N 30°05' W 093°20'2 4.0
2018-May-16 01:30N 30°04' W 093°22'2 4.6
2018-May-16 00:58N 30°04' W 093°25'2 4.7
2018-May-16 00:30N 30°04' W 093°28'2 4.6
2018-May-16 00:00N 30°04' W 093°30'12 4.8
2018-May-15 21:35N 30°03' W 093°44'0 5.3
2018-May-15 21:30N 30°02' W 093°44'3 5.0
2018-May-15 20:58N 30°00' W 093°46'2 5.3
2018-May-15 20:30N 29°59' W 093°48'3 5.3
2018-May-15 20:00N 29°58' W 093°51'3 6.2
2018-May-15 19:30N 29°59' W 093°55'3 5.7
2018-May-15 19:00N 30°01' W 093°57'3 5.8
2018-May-15 18:29N 30°01' W 094°01'2 4.2
2018-May-15 18:00N 30°02' W 094°03'0 0.1
2018-May-15 17:30N 30°02' W 094°03'0 0.0
2018-May-15 17:00N 30°02' W 094°03'0 0.1
2018-May-15 16:30N 30°02' W 094°03'0 0.0
2018-May-15 16:00N 30°02' W 094°03'0 0.0
2018-May-15 15:30N 30°02' W 094°03'0 0.0
2018-May-15 15:00N 30°02' W 094°03'0 0.0
2018-May-15 14:30N 30°02' W 094°03'0 0.0
2018-May-15 14:00N 30°02' W 094°03'0 0.0
2018-May-15 13:30N 30°02' W 094°03'0 0.0
2018-May-15 13:00N 30°02' W 094°03'0 0.0
2018-May-15 12:30N 30°02' W 094°03'0 0.0
2018-May-15 11:59N 30°02' W 094°03'0 0.0
2018-May-15 11:30N 30°02' W 094°03'0 0.0
2018-May-15 11:00N 30°02' W 094°03'0 0.0
2018-May-15 10:30N 30°02' W 094°03'0 0.0
2018-May-15 10:00N 30°02' W 094°03'0 0.0
2018-May-15 09:30N 30°02' W 094°03'0 0.0
2018-May-15 09:00N 30°02' W 094°03'0 0.0
2018-May-15 08:30N 30°02' W 094°03'0 0.0
2018-May-15 08:00N 30°02' W 094°03'0 0.0
2018-May-15 07:28N 30°02' W 094°03'0 0.0
2018-May-15 06:59N 30°02' W 094°03'0 0.0
2018-May-15 06:29N 30°02' W 094°03'0 0.0
2018-May-15 05:59N 30°02' W 094°03'0 0.0
2018-May-15 05:29N 30°02' W 094°03'0 0.0
2018-May-15 05:00N 30°02' W 094°03'0 0.0
2018-May-15 04:30N 30°02' W 094°03'0 0.0
2018-May-15 04:00N 30°02' W 094°03'0 0.0
2018-May-15 03:30N 30°02' W 094°03'0 0.0
2018-May-15 02:59N 30°02' W 094°03'0 0.0
2018-May-15 02:30N 30°02' W 094°03'0 0.0
2018-May-15 02:00N 30°02' W 094°03'0 0.0
2018-May-15 01:30N 30°02' W 094°03'0 0.0
2018-May-15 00:58N 30°02' W 094°03'0 0.0
2018-May-15 00:30N 30°02' W 094°03'0 0.0
2018-May-15 00:00N 30°02' W 094°03'0 0.0
2018-May-14 23:30N 30°02' W 094°03'0 0.0
2018-May-14 23:01N 30°02' W 094°03'0 0.0
2018-May-14 22:30N 30°02' W 094°03'0 0.0
2018-May-14 22:00N 30°02' W 094°03'0 0.0
2018-May-14 21:29N 30°02' W 094°03'0 0.0
2018-May-14 21:00N 30°02' W 094°03'0 0.0
2018-May-14 20:30N 30°02' W 094°03'0 0.0
2018-May-14 20:00N 30°02' W 094°03'0 0.0
2018-May-14 19:30N 30°02' W 094°03'0 0.0
2018-May-14 19:00N 30°02' W 094°03'0 0.0
2018-May-14 18:30N 30°02' W 094°03'0 0.2
2018-May-14 18:00N 30°02' W 094°03'0 0.0
2018-May-14 17:30N 30°02' W 094°03'0 0.0
2018-May-14 17:00N 30°02' W 094°03'0 0.0
2018-May-14 16:30N 30°02' W 094°03'0 0.0
2018-May-14 16:00N 30°02' W 094°03'0 0.0
2018-May-14 15:30N 30°02' W 094°03'0 0.0
2018-May-14 15:00N 30°02' W 094°03'0 0.0
2018-May-14 14:30N 30°02' W 094°03'0 0.0
2018-May-14 14:00N 30°02' W 094°03'0 0.0
2018-May-14 13:30N 30°02' W 094°03'0 0.0
2018-May-14 13:00N 30°02' W 094°03'0 0.0
2018-May-14 12:30N 30°02' W 094°03'0 0.0
2018-May-14 12:01N 30°02' W 094°03'0 0.0
2018-May-14 11:30N 30°02' W 094°03'0 0.0
2018-May-14 11:00N 30°02' W 094°03'0 0.0
2018-May-14 10:30N 30°02' W 094°03'0 0.0
2018-May-14 10:00N 30°02' W 094°03'0 0.0
2018-May-14 09:30N 30°02' W 094°03'0 0.0
2018-May-14 09:00N 30°02' W 094°03'0 0.0
2018-May-14 08:30N 30°02' W 094°03'0 0.0
2018-May-14 08:00N 30°02' W 094°03'0 0.0
2018-May-14 07:30N 30°02' W 094°03'0 0.0
2018-May-14 07:00N 30°02' W 094°03'0 0.0
2018-May-14 06:30N 30°02' W 094°03'0 0.0
2018-May-14 06:00N 30°02' W 094°03'0 0.0
2018-May-14 05:30N 30°02' W 094°03'0 0.0
2018-May-14 05:00N 30°02' W 094°03'0 0.0
2018-May-14 04:30N 30°02' W 094°03'0 0.0
2018-May-14 04:00N 30°02' W 094°03'0 0.0
2018-May-14 03:30N 30°02' W 094°03'0 0.0
2018-May-14 03:00N 30°02' W 094°03'0 0.0
2018-May-14 02:30N 30°02' W 094°03'0 0.0
2018-May-14 02:00N 30°02' W 094°03'0 0.0
2018-May-14 01:30N 30°02' W 094°03'0 0.0
2018-May-14 01:00N 30°02' W 094°03'0 0.0
2018-May-14 00:30N 30°02' W 094°03'0 0.0
2018-May-14 00:01N 30°02' W 094°03'0 0.0
2018-May-13 23:31N 30°02' W 094°03'0 0.0
2018-May-13 23:01N 30°02' W 094°03'0 0.0
2018-May-13 22:30N 30°02' W 094°03'0 0.0
2018-May-13 22:00N 30°02' W 094°03'0 0.0
2018-May-13 21:30N 30°02' W 094°03'0 0.0
2018-May-13 21:00N 30°02' W 094°03'0 0.0
2018-May-13 20:31N 30°02' W 094°03'0 0.9
2018-May-13 20:00N 30°02' W 094°02'3 6.2
2018-May-13 19:30N 30°01' W 093°59'3 5.5
2018-May-13 19:00N 29°60' W 093°56'3 6.6
2018-May-13 18:30N 29°59' W 093°53'3 5.5
2018-May-13 18:00N 29°59' W 093°50'4 7.2
2018-May-13 17:30N 30°00' W 093°46'3 7.0
2018-May-13 17:00N 30°03' W 093°43'4 5.9
2018-May-13 16:25N 30°04' W 093°39'10 6.2
2018-May-13 14:49N 30°04' W 093°28'2 6.1
2018-May-13 14:30N 30°04' W 093°26'3 6.0
2018-May-13 14:00N 30°04' W 093°22'3 5.0
2018-May-13 13:30N 30°05' W 093°20'3 6.1
2018-May-13 13:00N 30°08' W 093°20'0 0.7
2018-May-13 12:30N 30°08' W 093°19'0 0.0
2018-May-13 12:00N 30°08' W 093°19'0 0.0
2018-May-13 11:30N 30°08' W 093°19'0 0.0
2018-May-13 11:00N 30°08' W 093°19'0 0.0
2018-May-13 10:30N 30°08' W 093°19'0 0.0
2018-May-13 10:00N 30°08' W 093°19'0 0.0
2018-May-13 09:30N 30°08' W 093°19'0 0.0
2018-May-13 09:00N 30°08' W 093°19'0 0.0
2018-May-13 08:30N 30°08' W 093°19'0 0.0
2018-May-13 08:00N 30°08' W 093°19'0 0.0
2018-May-13 07:30N 30°08' W 093°19'0 0.0
2018-May-13 07:00N 30°08' W 093°19'0 0.0
2018-May-13 06:30N 30°08' W 093°19'0 0.0
2018-May-13 06:00N 30°08' W 093°19'0 0.0
2018-May-13 05:30N 30°08' W 093°19'0 0.0
2018-May-13 05:00N 30°08' W 093°19'0 0.0
2018-May-13 04:30N 30°08' W 093°19'0 0.0
2018-May-13 04:00N 30°08' W 093°19'0 0.0
2018-May-13 03:30N 30°08' W 093°19'0 0.0
2018-May-13 03:00N 30°08' W 093°19'0 0.0
2018-May-13 02:30N 30°08' W 093°19'0 0.0
2018-May-13 02:00N 30°08' W 093°19'0 0.0
2018-May-13 01:30N 30°08' W 093°19'1 2.2
2018-May-13 01:00N 30°07' W 093°20'2 4.7
2018-May-13 00:30N 30°05' W 093°20'2 4.0
2018-May-13 00:00N 30°04' W 093°22'2 3.6
2018-May-12 23:30N 30°04' W 093°24'2 4.0
2018-May-12 23:00N 30°04' W 093°26'2 4.1
2018-May-12 22:30N 30°04' W 093°28'2 4.3
2018-May-12 22:00N 30°04' W 093°31'10 4.6
2018-May-12 19:55N 30°03' W 093°42'2 5.0
2018-May-12 19:30N 30°03' W 093°44'2 5.0
2018-May-12 19:00N 30°01' W 093°46'3 5.3
2018-May-12 18:31N 29°59' W 093°48'3 5.2
2018-May-12 18:00N 29°58' W 093°51'2 4.0
2018-May-12 17:30N 29°59' W 093°53'3 6.5
2018-May-12 17:00N 29°60' W 093°57'3 5.1
2018-May-12 16:30N 30°01' W 093°60'3 5.4
2018-May-12 16:00N 30°02' W 094°02'1 1.1
2018-May-12 15:30N 30°02' W 094°03'0 0.0
2018-May-12 15:00N 30°02' W 094°03'0 0.0
2018-May-12 14:31N 30°02' W 094°03'0 0.0
2018-May-12 14:00N 30°02' W 094°03'0 0.0
2018-May-12 13:30N 30°02' W 094°03'0 0.0
2018-May-12 13:00N 30°02' W 094°03'0 0.0
2018-May-12 12:30N 30°02' W 094°03'0 0.0
2018-May-12 12:00N 30°02' W 094°03'0 0.0
2018-May-12 11:30N 30°02' W 094°03'0 0.0
2018-May-12 11:00N 30°02' W 094°03'0 0.0
2018-May-12 10:30N 30°02' W 094°03'0 0.0
2018-May-12 10:00N 30°02' W 094°03'0 0.0
2018-May-12 09:30N 30°02' W 094°03'0 0.0
2018-May-12 09:00N 30°02' W 094°03'0 0.0
2018-May-12 08:30N 30°02' W 094°03'0 0.0
2018-May-12 08:00N 30°02' W 094°03'0 0.0
2018-May-12 07:30N 30°02' W 094°03'0 0.0
2018-May-12 07:00N 30°02' W 094°03'0 0.0
2018-May-12 06:30N 30°02' W 094°03'0 0.0
2018-May-12 06:00N 30°02' W 094°03'0 0.0
2018-May-12 05:30N 30°02' W 094°03'0 0.0
2018-May-12 04:59N 30°02' W 094°03'0 0.0
2018-May-12 04:31N 30°02' W 094°03'0 0.0
2018-May-12 04:00N 30°02' W 094°03'0 0.0
2018-May-12 03:28N 30°02' W 094°03'0 0.0
2018-May-12 03:00N 30°02' W 094°03'0 0.0
2018-May-12 02:30N 30°02' W 094°03'0 0.0
2018-May-12 02:00N 30°02' W 094°03'0 0.0
2018-May-12 01:27N 30°02' W 094°03'0 0.0
2018-May-12 01:00N 30°02' W 094°03'0 0.0
2018-May-12 00:30N 30°02' W 094°03'0 0.0
2018-May-12 00:00N 30°02' W 094°03'0 0.0
2018-May-11 23:30N 30°02' W 094°03'0 0.0
2018-May-11 23:00N 30°02' W 094°03'0 0.0
2018-May-11 22:30N 30°02' W 094°03'0 0.0
2018-May-11 22:00N 30°02' W 094°03'0 0.0
2018-May-11 21:30N 30°02' W 094°03'0 0.0
2018-May-11 21:01N 30°02' W 094°03'0 0.0
2018-May-11 20:30N 30°02' W 094°03'0 0.0
2018-May-11 20:00N 30°02' W 094°03'0 0.0
2018-May-11 19:30N 30°02' W 094°03'0 0.0
2018-May-11 19:00N 30°02' W 094°03'0 0.0
2018-May-11 18:30N 30°02' W 094°03'0 0.0
2018-May-11 18:00N 30°02' W 094°03'0 0.0
2018-May-11 17:30N 30°02' W 094°03'0 0.0
2018-May-11 17:01N 30°02' W 094°03'0 0.0
2018-May-11 16:30N 30°02' W 094°03'0 0.0
2018-May-11 16:01N 30°02' W 094°03'0 0.1
2018-May-11 15:30N 30°02' W 094°03'0 0.4
2018-May-11 15:01N 30°02' W 094°03'0 0.0
2018-May-11 14:30N 30°02' W 094°03'0 0.0
2018-May-11 14:00N 30°02' W 094°03'0 0.0
2018-May-11 13:30N 30°02' W 094°03'0 0.0
2018-May-11 13:00N 30°02' W 094°03'0 0.0
2018-May-11 12:30N 30°02' W 094°03'0 0.0
2018-May-11 12:01N 30°02' W 094°03'0 0.0
2018-May-11 11:30N 30°02' W 094°03'0 0.0
2018-May-11 11:01N 30°02' W 094°03'0 0.9
2018-May-11 10:30N 30°02' W 094°02'3 5.9
2018-May-11 10:00N 30°01' W 093°60'3 5.4
2018-May-11 09:30N 29°60' W 093°57'4 7.0
2018-May-11 08:58N 29°59' W 093°53'3 6.3
2018-May-11 08:30N 29°59' W 093°49'3 6.4
2018-May-11 08:00N 30°00' W 093°46'3 6.3
2018-May-11 07:30N 30°03' W 093°44'4 6.3
2018-May-11 06:54N 30°04' W 093°39'8 6.2
2018-May-11 05:35N 30°04' W 093°30'2 6.2
2018-May-11 05:14N 30°04' W 093°27'1 6.2
2018-May-11 05:00N 30°04' W 093°26'3 6.1
2018-May-11 04:30N 30°04' W 093°22'2 4.5
2018-May-11 04:00N 30°05' W 093°20'3 6.1
2018-May-11 03:30N 30°08' W 093°20'0 0.9
2018-May-11 03:00N 30°08' W 093°19'0 0.0
2018-May-11 02:30N 30°08' W 093°19'0 0.0
2018-May-11 02:00N 30°08' W 093°19'0 0.0
2018-May-11 01:30N 30°08' W 093°19'0 0.0
2018-May-11 01:00N 30°08' W 093°19'0 0.0
2018-May-11 00:30N 30°08' W 093°19'0 0.0
2018-May-11 00:00N 30°08' W 093°19'0 0.0
2018-May-10 23:30N 30°08' W 093°19'0 0.0
2018-May-10 23:00N 30°08' W 093°19'0 0.0
2018-May-10 22:30N 30°08' W 093°19'0 0.0
2018-May-10 22:00N 30°08' W 093°19'  
Track history (hours):
 
Tides and Currents Weather Stations Pressure Air Temp Water Temp Dewpoint Dewpoint Depression Visibility Wind Speed Wind Dir Waves Ship Positions

Creole Rivers

Owner: LeBeouf Bros. Towing, L.L.C, Houma, LA. More information available from US FCC via Universal Licensing System and Coast Guard Vessel Documentation Center.

Last reported at 2018-May-20 21:30 UTC. Time now 2018-May-20 21:51 UTC.
Position N 30°02' W 094°03'.

Length 20 m; draft 3 m.

Type: Tug. MMSI: 367005470.

Date/timePositionNaut miles runAvg speedWind from/ knotsBaromVisibWave heightAir tempDewpointWater temp
2018-May-20 21:30N 30°02' W 094°03'0 0.0
2018-May-20 21:00N 30°02' W 094°03'0 0.0
2018-May-20 20:30N 30°02' W 094°03'0 0.0
2018-May-20 20:00N 30°02' W 094°03'0 0.0
2018-May-20 19:30N 30°02' W 094°03'0 0.0
2018-May-20 19:01N 30°02' W 094°03'0 0.0
2018-May-20 18:30N 30°02' W 094°03'0 0.0
2018-May-20 18:00N 30°02' W 094°03'0 0.0
2018-May-20 17:30N 30°02' W 094°03'0 0.0
2018-May-20 17:00N 30°02' W 094°03'0 0.0
2018-May-20 16:30N 30°02' W 094°03'0 0.0
2018-May-20 16:00N 30°02' W 094°03'0 0.0
2018-May-20 15:30N 30°02' W 094°03'0 0.0
2018-May-20 15:00N 30°02' W 094°03'0 0.0
2018-May-20 14:30N 30°02' W 094°03'0 0.0
2018-May-20 14:01N 30°02' W 094°03'0 0.0
2018-May-20 13:30N 30°02' W 094°03'0 0.0
2018-May-20 13:00N 30°02' W 094°03'0 0.0
2018-May-20 12:30N 30°02' W 094°03'0 0.0
2018-May-20 12:00N 30°02' W 094°03'0 0.0
2018-May-20 11:30N 30°02' W 094°03'0 0.0
2018-May-20 11:00N 30°02' W 094°03'0 0.0
2018-May-20 10:30N 30°02' W 094°03'0 0.0
2018-May-20 10:00N 30°02' W 094°03'0 0.0
2018-May-20 09:31N 30°02' W 094°03'0 0.0
2018-May-20 09:00N 30°02' W 094°03'0 0.0
2018-May-20 08:30N 30°02' W 094°03'0 0.0
2018-May-20 08:00N 30°02' W 094°03'0 0.0
2018-May-20 07:30N 30°02' W 094°03'0 0.0
2018-May-20 07:00N 30°02' W 094°03'0 0.0
2018-May-20 06:31N 30°02' W 094°03'0 0.0
2018-May-20 06:00N 30°02' W 094°03'0 0.0
2018-May-20 05:30N 30°02' W 094°03'0 0.0
2018-May-20 05:00N 30°02' W 094°03'2 3.5
2018-May-20 04:30N 30°01' W 094°01'3 6.6
2018-May-20 04:00N 30°01' W 093°57'3 6.1
2018-May-20 03:30N 29°59' W 093°54'3 5.9
2018-May-20 03:00N 29°58' W 093°51'3 6.9
2018-May-20 02:30N 29°59' W 093°47'4 7.2
2018-May-20 02:00N 30°02' W 093°44'15 6.1
2018-May-19 23:32N 30°04' W 093°27'0 6.3
2018-May-19 23:30N 30°04' W 093°27'3 6.3
2018-May-19 23:00N 30°04' W 093°23'3 5.7
2018-May-19 22:30N 30°05' W 093°20'2 4.1
2018-May-19 22:00N 30°06' W 093°19'0 0.0
2018-May-19 21:30N 30°06' W 093°19'0 0.0
2018-May-19 20:58N 30°06' W 093°19'0 0.0
2018-May-19 20:30N 30°06' W 093°19'1 1.8
2018-May-19 20:00N 30°06' W 093°20'2 4.0
2018-May-19 19:30N 30°08' W 093°19'0 0.0
2018-May-19 19:00N 30°08' W 093°19'0 0.0
2018-May-19 18:30N 30°08' W 093°19'0 0.0
2018-May-19 18:00N 30°08' W 093°19'0 0.0
2018-May-19 17:30N 30°08' W 093°19'0 0.0
2018-May-19 17:00N 30°08' W 093°19'0 0.0
2018-May-19 16:30N 30°08' W 093°19'0 0.0
2018-May-19 16:00N 30°08' W 093°19'0 0.0
2018-May-19 15:29N 30°08' W 093°19'0 0.0
2018-May-19 15:00N 30°08' W 093°19'0 0.0
2018-May-19 14:30N 30°08' W 093°19'0 0.0
2018-May-19 14:00N 30°08' W 093°19'0 0.0
2018-May-19 13:30N 30°08' W 093°19'0 0.0
2018-May-19 13:00N 30°08' W 093°19'0 0.0
2018-May-19 12:30N 30°08' W 093°19'0 0.0
2018-May-19 12:00N 30°08' W 093°19'0 0.0
2018-May-19 11:30N 30°08' W 093°19'0 0.0
2018-May-19 11:00N 30°08' W 093°19'0 0.0
2018-May-19 10:30N 30°08' W 093°19'0 0.0
2018-May-19 10:00N 30°08' W 093°19'1 3.0
2018-May-19 09:30N 30°07' W 093°20'2 4.3
2018-May-19 09:00N 30°05' W 093°20'2 4.1
2018-May-19 08:30N 30°04' W 093°22'0 0.5
2018-May-19 08:00N 30°04' W 093°23'0 0.2
2018-May-19 07:30N 30°04' W 093°23'2 4.4
2018-May-19 07:00N 30°04' W 093°25'2 4.6
2018-May-19 06:30N 30°04' W 093°28'13 4.4
2018-May-19 03:30N 30°03' W 093°43'2 4.9
2018-May-19 03:00N 30°01' W 093°45'3 5.3
2018-May-19 02:30N 29°59' W 093°47'3 5.3
2018-May-19 02:00N 29°59' W 093°50'2 4.5
2018-May-19 01:30N 29°59' W 093°53'3 6.5
2018-May-19 01:00N 29°60' W 093°56'3 5.2
2018-May-19 00:30N 30°01' W 093°59'3 5.8
2018-May-19 00:00N 30°02' W 094°02'1 1.4
2018-May-18 23:30N 30°02' W 094°03'0 0.0
2018-May-18 22:59N 30°02' W 094°03'0 0.0
2018-May-18 22:30N 30°02' W 094°03'0 0.0
2018-May-18 22:00N 30°02' W 094°03'0 0.0
2018-May-18 21:30N 30°02' W 094°03'0 0.0
2018-May-18 21:00N 30°02' W 094°03'0 0.0
2018-May-18 20:30N 30°02' W 094°03'0 0.0
2018-May-18 20:00N 30°02' W 094°03'0 0.0
2018-May-18 19:30N 30°02' W 094°03'0 0.0
2018-May-18 19:00N 30°02' W 094°03'0 0.0
2018-May-18 18:30N 30°02' W 094°03'0 0.0
2018-May-18 18:01N 30°02' W 094°03'0 0.0
2018-May-18 17:30N 30°02' W 094°03'0 0.0
2018-May-18 17:00N 30°02' W 094°03'0 0.0
2018-May-18 16:30N 30°02' W 094°03'0 0.0
2018-May-18 16:00N 30°02' W 094°03'0 0.0
2018-May-18 15:29N 30°02' W 094°03'0 0.0
2018-May-18 15:00N 30°02' W 094°03'0 0.0
2018-May-18 14:30N 30°02' W 094°03'0 0.0
2018-May-18 14:00N 30°02' W 094°03'0 0.0
2018-May-18 13:30N 30°02' W 094°03'0 0.0
2018-May-18 13:00N 30°02' W 094°03'0 0.0
2018-May-18 12:30N 30°02' W 094°03'0 0.0
2018-May-18 12:00N 30°02' W 094°03'0 0.0
2018-May-18 11:30N 30°02' W 094°03'0 0.0
2018-May-18 11:00N 30°02' W 094°03'0 0.0
2018-May-18 10:30N 30°02' W 094°03'0 0.0
2018-May-18 10:00N 30°02' W 094°03'0 0.0
2018-May-18 09:30N 30°02' W 094°03'0 0.0
2018-May-18 08:59N 30°02' W 094°03'0 0.0
2018-May-18 08:30N 30°02' W 094°03'0 0.0
2018-May-18 08:00N 30°02' W 094°03'0 0.0
2018-May-18 07:30N 30°02' W 094°03'0 0.0
2018-May-18 07:00N 30°02' W 094°03'0 0.0
2018-May-18 06:30N 30°02' W 094°03'0 0.0
2018-May-18 06:00N 30°02' W 094°03'0 0.0
2018-May-18 05:30N 30°02' W 094°03'0 0.0
2018-May-18 05:00N 30°02' W 094°03'0 0.0
2018-May-18 04:30N 30°02' W 094°03'0 0.0
2018-May-18 04:00N 30°02' W 094°03'0 0.0
2018-May-18 03:30N 30°02' W 094°03'0 0.0
2018-May-18 03:00N 30°02' W 094°03'0 0.0
2018-May-18 02:29N 30°02' W 094°03'0 0.0
2018-May-18 02:00N 30°02' W 094°03'0 0.0
2018-May-18 01:30N 30°02' W 094°03'0 0.0
2018-May-18 00:59N 30°02' W 094°03'0 0.0
2018-May-18 00:30N 30°02' W 094°03'0 0.0
2018-May-18 00:00N 30°02' W 094°03'1 1.5
2018-May-17 23:30N 30°02' W 094°02'3 6.3
2018-May-17 23:00N 30°01' W 093°59'3 5.5
2018-May-17 22:30N 29°59' W 093°56'3 6.5
2018-May-17 22:00N 29°59' W 093°52'2 5.0
2018-May-17 21:30N 29°59' W 093°49'3 6.6
2018-May-17 21:00N 30°00' W 093°46'2 3.3
2018-May-17 20:30N 30°02' W 093°44'15 5.8
2018-May-17 17:53N 30°04' W 093°27'2 5.9
2018-May-17 17:30N 30°04' W 093°24'3 5.8
2018-May-17 17:00N 30°04' W 093°21'3 5.4
2018-May-17 16:30N 30°06' W 093°20'2 4.1
2018-May-17 16:00N 30°08' W 093°19'0 0.0
2018-May-17 15:30N 30°08' W 093°19'0 0.0
2018-May-17 15:00N 30°08' W 093°19'0 0.0
2018-May-17 14:30N 30°08' W 093°19'0 0.0
2018-May-17 14:00N 30°08' W 093°19'0 0.0
2018-May-17 13:30N 30°08' W 093°19'0 0.0
2018-May-17 13:00N 30°08' W 093°19'0 0.0
2018-May-17 12:30N 30°08' W 093°19'0 0.0
2018-May-17 12:00N 30°08' W 093°19'0 0.0
2018-May-17 11:30N 30°08' W 093°19'0 0.0
2018-May-17 11:00N 30°08' W 093°19'0 0.0
2018-May-17 10:30N 30°08' W 093°19'0 0.0
2018-May-17 10:00N 30°08' W 093°19'0 0.0
2018-May-17 09:30N 30°08' W 093°19'0 0.0
2018-May-17 09:00N 30°08' W 093°19'0 0.0
2018-May-17 08:30N 30°08' W 093°19'0 0.0
2018-May-17 08:00N 30°08' W 093°19'0 0.0
2018-May-17 07:30N 30°08' W 093°19'0 0.0
2018-May-17 07:00N 30°08' W 093°19'0 0.3
2018-May-17 06:30N 30°08' W 093°20'0 0.1
2018-May-17 06:00N 30°08' W 093°19'0 0.0
2018-May-17 05:30N 30°08' W 093°19'0 0.0
2018-May-17 05:00N 30°08' W 093°19'0 0.0
2018-May-17 04:30N 30°08' W 093°19'0 0.0
2018-May-17 04:00N 30°08' W 093°19'0 0.0
2018-May-17 03:30N 30°08' W 093°19'0 0.0
2018-May-17 03:00N 30°08' W 093°19'0 0.0
2018-May-17 02:30N 30°08' W 093°19'0 0.0
2018-May-17 02:00N 30°08' W 093°19'0 0.0
2018-May-17 01:30N 30°08' W 093°19'0 0.0
2018-May-17 01:00N 30°08' W 093°19'0 0.0
2018-May-17 00:30N 30°08' W 093°19'0 0.0
2018-May-17 00:00N 30°08' W 093°19'0 0.0
2018-May-16 23:30N 30°08' W 093°19'0 0.0
2018-May-16 23:00N 30°08' W 093°19'0 0.0
2018-May-16 22:30N 30°08' W 093°19'0 0.0
2018-May-16 22:00N 30°08' W 093°19'0 0.1
2018-May-16 21:30N 30°08' W 093°19'0 0.0
2018-May-16 21:00N 30°08' W 093°19'0 0.0
2018-May-16 20:30N 30°08' W 093°19'0 0.0
2018-May-16 20:00N 30°08' W 093°19'0 0.0
2018-May-16 19:30N 30°08' W 093°19'0 0.0
2018-May-16 19:00N 30°08' W 093°19'0 0.0
2018-May-16 18:30N 30°08' W 093°19'0 0.0
2018-May-16 18:00N 30°08' W 093°19'0 0.0
2018-May-16 17:30N 30°08' W 093°19'0 0.0
2018-May-16 17:00N 30°08' W 093°19'0 0.0
2018-May-16 16:30N 30°08' W 093°19'0 0.0
2018-May-16 16:00N 30°08' W 093°19'0 0.0
2018-May-16 15:30N 30°08' W 093°19'0 0.0
2018-May-16 15:00N 30°08' W 093°19'0 0.0
2018-May-16 14:30N 30°08' W 093°19'0 0.0
2018-May-16 14:00N 30°08' W 093°19'0 0.0
2018-May-16 13:30N 30°08' W 093°19'0 0.0
2018-May-16 13:00N 30°08' W 093°19'0 0.0
2018-May-16 12:30N 30°08' W 093°19'0 0.0
2018-May-16 12:00N 30°08' W 093°19'0 0.0
2018-May-16 11:30N 30°08' W 093°19'0 0.0
2018-May-16 11:00N 30°08' W 093°19'0 0.0
2018-May-16 10:30N 30°08' W 093°19'0 0.0
2018-May-16 10:00N 30°08' W 093°19'0 0.0
2018-May-16 09:30N 30°08' W 093°19'0 0.0
2018-May-16 09:00N 30°08' W 093°19'0 0.0
2018-May-16 08:30N 30°08' W 093°19'0 0.0
2018-May-16 08:00N 30°08' W 093°19'0 0.0
2018-May-16 07:30N 30°08' W 093°19'0 0.1
2018-May-16 07:00N 30°08' W 093°19'0 0.0
2018-May-16 06:30N 30°08' W 093°19'0 0.0
2018-May-16 06:00N 30°08' W 093°19'0 0.0
2018-May-16 05:30N 30°08' W 093°19'0 0.0
2018-May-16 05:00N 30°08' W 093°19'0 0.0
2018-May-16 04:30N 30°08' W 093°19'0 0.0
2018-May-16 04:00N 30°08' W 093°19'0 0.0
2018-May-16 03:30N 30°08' W 093°19'0 0.0
2018-May-16 03:00N 30°08' W 093°19'2 3.0
2018-May-16 02:30N 30°07' W 093°20'2 4.0
2018-May-16 02:00N 30°05' W 093°20'2 4.0
2018-May-16 01:30N 30°04' W 093°22'2 4.6
2018-May-16 00:58N 30°04' W 093°25'2 4.7
2018-May-16 00:30N 30°04' W 093°28'2 4.6
2018-May-16 00:00N 30°04' W 093°30'12 4.8
2018-May-15 21:35N 30°03' W 093°44'0 5.3
2018-May-15 21:30N 30°02' W 093°44'3 5.0
2018-May-15 20:58N 30°00' W 093°46'2 5.3
2018-May-15 20:30N 29°59' W 093°48'3 5.3
2018-May-15 20:00N 29°58' W 093°51'3 6.2
2018-May-15 19:30N 29°59' W 093°55'3 5.7
2018-May-15 19:00N 30°01' W 093°57'3 5.8
2018-May-15 18:29N 30°01' W 094°01'2 4.2
2018-May-15 18:00N 30°02' W 094°03'0 0.1
2018-May-15 17:30N 30°02' W 094°03'0 0.0
2018-May-15 17:00N 30°02' W 094°03'0 0.1
2018-May-15 16:30N 30°02' W 094°03'0 0.0
2018-May-15 16:00N 30°02' W 094°03'0 0.0
2018-May-15 15:30N 30°02' W 094°03'0 0.0
2018-May-15 15:00N 30°02' W 094°03'0 0.0
2018-May-15 14:30N 30°02' W 094°03'0 0.0
2018-May-15 14:00N 30°02' W 094°03'0 0.0
2018-May-15 13:30N 30°02' W 094°03'0 0.0
2018-May-15 13:00N 30°02' W 094°03'0 0.0
2018-May-15 12:30N 30°02' W 094°03'0 0.0
2018-May-15 11:59N 30°02' W 094°03'0 0.0
2018-May-15 11:30N 30°02' W 094°03'0 0.0
2018-May-15 11:00N 30°02' W 094°03'0 0.0
2018-May-15 10:30N 30°02' W 094°03'0 0.0
2018-May-15 10:00N 30°02' W 094°03'0 0.0
2018-May-15 09:30N 30°02' W 094°03'0 0.0
2018-May-15 09:00N 30°02' W 094°03'0 0.0
2018-May-15 08:30N 30°02' W 094°03'0 0.0
2018-May-15 08:00N 30°02' W 094°03'0 0.0
2018-May-15 07:28N 30°02' W 094°03'0 0.0
2018-May-15 06:59N 30°02' W 094°03'0 0.0
2018-May-15 06:29N 30°02' W 094°03'0 0.0
2018-May-15 05:59N 30°02' W 094°03'0 0.0
2018-May-15 05:29N 30°02' W 094°03'0 0.0
2018-May-15 05:00N 30°02' W 094°03'0 0.0
2018-May-15 04:30N 30°02' W 094°03'0 0.0
2018-May-15 04:00N 30°02' W 094°03'0 0.0
2018-May-15 03:30N 30°02' W 094°03'0 0.0
2018-May-15 02:59N 30°02' W 094°03'0 0.0
2018-May-15 02:30N 30°02' W 094°03'0 0.0
2018-May-15 02:00N 30°02' W 094°03'0 0.0
2018-May-15 01:30N 30°02' W 094°03'0 0.0
2018-May-15 00:58N 30°02' W 094°03'0 0.0
2018-May-15 00:30N 30°02' W 094°03'0 0.0
2018-May-15 00:00N 30°02' W 094°03'0 0.0
2018-May-14 23:30N 30°02' W 094°03'0 0.0
2018-May-14 23:01N 30°02' W 094°03'0 0.0
2018-May-14 22:30N 30°02' W 094°03'0 0.0
2018-May-14 22:00N 30°02' W 094°03'0 0.0
2018-May-14 21:29N 30°02' W 094°03'0 0.0
2018-May-14 21:00N 30°02' W 094°03'0 0.0
2018-May-14 20:30N 30°02' W 094°03'0 0.0
2018-May-14 20:00N 30°02' W 094°03'0 0.0
2018-May-14 19:30N 30°02' W 094°03'0 0.0
2018-May-14 19:00N 30°02' W 094°03'0 0.0
2018-May-14 18:30N 30°02' W 094°03'0 0.2
2018-May-14 18:00N 30°02' W 094°03'0 0.0
2018-May-14 17:30N 30°02' W 094°03'0 0.0
2018-May-14 17:00N 30°02' W 094°03'0 0.0
2018-May-14 16:30N 30°02' W 094°03'0 0.0
2018-May-14 16:00N 30°02' W 094°03'0 0.0
2018-May-14 15:30N 30°02' W 094°03'0 0.0
2018-May-14 15:00N 30°02' W 094°03'0 0.0
2018-May-14 14:30N 30°02' W 094°03'0 0.0
2018-May-14 14:00N 30°02' W 094°03'0 0.0
2018-May-14 13:30N 30°02' W 094°03'0 0.0
2018-May-14 13:00N 30°02' W 094°03'0 0.0
2018-May-14 12:30N 30°02' W 094°03'0 0.0
2018-May-14 12:01N 30°02' W 094°03'0 0.0
2018-May-14 11:30N 30°02' W 094°03'0 0.0
2018-May-14 11:00N 30°02' W 094°03'0 0.0
2018-May-14 10:30N 30°02' W 094°03'0 0.0
2018-May-14 10:00N 30°02' W 094°03'0 0.0
2018-May-14 09:30N 30°02' W 094°03'0 0.0
2018-May-14 09:00N 30°02' W 094°03'0 0.0
2018-May-14 08:30N 30°02' W 094°03'0 0.0
2018-May-14 08:00N 30°02' W 094°03'0 0.0
2018-May-14 07:30N 30°02' W 094°03'0 0.0
2018-May-14 07:00N 30°02' W 094°03'0 0.0
2018-May-14 06:30N 30°02' W 094°03'0 0.0
2018-May-14 06:00N 30°02' W 094°03'0 0.0
2018-May-14 05:30N 30°02' W 094°03'0 0.0
2018-May-14 05:00N 30°02' W 094°03'0 0.0
2018-May-14 04:30N 30°02' W 094°03'0 0.0
2018-May-14 04:00N 30°02' W 094°03'0 0.0
2018-May-14 03:30N 30°02' W 094°03'0 0.0
2018-May-14 03:00N 30°02' W 094°03'0 0.0
2018-May-14 02:30N 30°02' W 094°03'0 0.0
2018-May-14 02:00N 30°02' W 094°03'0 0.0
2018-May-14 01:30N 30°02' W 094°03'0 0.0
2018-May-14 01:00N 30°02' W 094°03'0 0.0
2018-May-14 00:30N 30°02' W 094°03'0 0.0
2018-May-14 00:01N 30°02' W 094°03'0 0.0
2018-May-13 23:31N 30°02' W 094°03'0 0.0
2018-May-13 23:01N 30°02' W 094°03'0 0.0
2018-May-13 22:30N 30°02' W 094°03'0 0.0
2018-May-13 22:00N 30°02' W 094°03'0 0.0
2018-May-13 21:30N 30°02' W 094°03'0 0.0
2018-May-13 21:00N 30°02' W 094°03'0 0.0
2018-May-13 20:31N 30°02' W 094°03'0 0.9
2018-May-13 20:00N 30°02' W 094°02'3 6.2
2018-May-13 19:30N 30°01' W 093°59'3 5.5
2018-May-13 19:00N 29°60' W 093°56'3 6.6
2018-May-13 18:30N 29°59' W 093°53'3 5.5
2018-May-13 18:00N 29°59' W 093°50'4 7.2
2018-May-13 17:30N 30°00' W 093°46'3 7.0
2018-May-13 17:00N 30°03' W 093°43'4 5.9
2018-May-13 16:25N 30°04' W 093°39'10 6.2
2018-May-13 14:49N 30°04' W 093°28'2 6.1
2018-May-13 14:30N 30°04' W 093°26'3 6.0
2018-May-13 14:00N 30°04' W 093°22'3 5.0
2018-May-13 13:30N 30°05' W 093°20'3 6.1
2018-May-13 13:00N 30°08' W 093°20'0 0.7
2018-May-13 12:30N 30°08' W 093°19'0 0.0
2018-May-13 12:00N 30°08' W 093°19'0 0.0
2018-May-13 11:30N 30°08' W 093°19'0 0.0
2018-May-13 11:00N 30°08' W 093°19'0 0.0
2018-May-13 10:30N 30°08' W 093°19'0 0.0
2018-May-13 10:00N 30°08' W 093°19'0 0.0
2018-May-13 09:30N 30°08' W 093°19'0 0.0
2018-May-13 09:00N 30°08' W 093°19'0 0.0
2018-May-13 08:30N 30°08' W 093°19'0 0.0
2018-May-13 08:00N 30°08' W 093°19'0 0.0
2018-May-13 07:30N 30°08' W 093°19'0 0.0
2018-May-13 07:00N 30°08' W 093°19'0 0.0
2018-May-13 06:30N 30°08' W 093°19'0 0.0
2018-May-13 06:00N 30°08' W 093°19'0 0.0
2018-May-13 05:30N 30°08' W 093°19'0 0.0
2018-May-13 05:00N 30°08' W 093°19'0 0.0
2018-May-13 04:30N 30°08' W 093°19'0 0.0
2018-May-13 04:00N 30°08' W 093°19'0 0.0
2018-May-13 03:30N 30°08' W 093°19'0 0.0
2018-May-13 03:00N 30°08' W 093°19'0 0.0
2018-May-13 02:30N 30°08' W 093°19'0 0.0
2018-May-13 02:00N 30°08' W 093°19'0 0.0
2018-May-13 01:30N 30°08' W 093°19'1 2.2
2018-May-13 01:00N 30°07' W 093°20'2 4.7
2018-May-13 00:30N 30°05' W 093°20'2 4.0
2018-May-13 00:00N 30°04' W 093°22'2 3.6
2018-May-12 23:30N 30°04' W 093°24'2 4.0
2018-May-12 23:00N 30°04' W 093°26'2 4.1
2018-May-12 22:30N 30°04' W 093°28'2 4.3
2018-May-12 22:00N 30°04' W 093°31'10 4.6
2018-May-12 19:55N 30°03' W 093°42'2 5.0
2018-May-12 19:30N 30°03' W 093°44'2 5.0
2018-May-12 19:00N 30°01' W 093°46'3 5.3
2018-May-12 18:31N 29°59' W 093°48'3 5.2
2018-May-12 18:00N 29°58' W 093°51'2 4.0
2018-May-12 17:30N 29°59' W 093°53'3 6.5
2018-May-12 17:00N 29°60' W 093°57'3 5.1
2018-May-12 16:30N 30°01' W 093°60'3 5.4
2018-May-12 16:00N 30°02' W 094°02'1 1.1
2018-May-12 15:30N 30°02' W 094°03'0 0.0
2018-May-12 15:00N 30°02' W 094°03'0 0.0
2018-May-12 14:31N 30°02' W 094°03'0 0.0
2018-May-12 14:00N 30°02' W 094°03'0 0.0
2018-May-12 13:30N 30°02' W 094°03'0 0.0
2018-May-12 13:00N 30°02' W 094°03'0 0.0
2018-May-12 12:30N 30°02' W 094°03'0 0.0
2018-May-12 12:00N 30°02' W 094°03'0 0.0
2018-May-12 11:30N 30°02' W 094°03'0 0.0
2018-May-12 11:00N 30°02' W 094°03'0 0.0
2018-May-12 10:30N 30°02' W 094°03'0 0.0
2018-May-12 10:00N 30°02' W 094°03'0 0.0
2018-May-12 09:30N 30°02' W 094°03'0 0.0
2018-May-12 09:00N 30°02' W 094°03'0 0.0
2018-May-12 08:30N 30°02' W 094°03'0 0.0
2018-May-12 08:00N 30°02' W 094°03'0 0.0
2018-May-12 07:30N 30°02' W 094°03'0 0.0
2018-May-12 07:00N 30°02' W 094°03'0 0.0
2018-May-12 06:30N 30°02' W 094°03'0 0.0
2018-May-12 06:00N 30°02' W 094°03'0 0.0
2018-May-12 05:30N 30°02' W 094°03'0 0.0
2018-May-12 04:59N 30°02' W 094°03'0 0.0
2018-May-12 04:31N 30°02' W 094°03'0 0.0
2018-May-12 04:00N 30°02' W 094°03'0 0.0
2018-May-12 03:28N 30°02' W 094°03'0 0.0
2018-May-12 03:00N 30°02' W 094°03'0 0.0
2018-May-12 02:30N 30°02' W 094°03'0 0.0
2018-May-12 02:00N 30°02' W 094°03'0 0.0
2018-May-12 01:27N 30°02' W 094°03'0 0.0
2018-May-12 01:00N 30°02' W 094°03'0 0.0
2018-May-12 00:30N 30°02' W 094°03'0 0.0
2018-May-12 00:00N 30°02' W 094°03'0 0.0
2018-May-11 23:30N 30°02' W 094°03'0 0.0
2018-May-11 23:00N 30°02' W 094°03'0 0.0
2018-May-11 22:30N 30°02' W 094°03'0 0.0
2018-May-11 22:00N 30°02' W 094°03'0 0.0
2018-May-11 21:30N 30°02' W 094°03'0 0.0
2018-May-11 21:01N 30°02' W 094°03'0 0.0
2018-May-11 20:30N 30°02' W 094°03'0 0.0
2018-May-11 20:00N 30°02' W 094°03'0 0.0
2018-May-11 19:30N 30°02' W 094°03'0 0.0
2018-May-11 19:00N 30°02' W 094°03'0 0.0
2018-May-11 18:30N 30°02' W 094°03'0 0.0
2018-May-11 18:00N 30°02' W 094°03'0 0.0
2018-May-11 17:30N 30°02' W 094°03'0 0.0
2018-May-11 17:01N 30°02' W 094°03'0 0.0
2018-May-11 16:30N 30°02' W 094°03'0 0.0
2018-May-11 16:01N 30°02' W 094°03'0 0.1
2018-May-11 15:30N 30°02' W 094°03'0 0.4
2018-May-11 15:01N 30°02' W 094°03'0 0.0
2018-May-11 14:30N 30°02' W 094°03'0 0.0
2018-May-11 14:00N 30°02' W 094°03'0 0.0
2018-May-11 13:30N 30°02' W 094°03'0 0.0
2018-May-11 13:00N 30°02' W 094°03'0 0.0
2018-May-11 12:30N 30°02' W 094°03'0 0.0
2018-May-11 12:01N 30°02' W 094°03'0 0.0
2018-May-11 11:30N 30°02' W 094°03'0 0.0
2018-May-11 11:01N 30°02' W 094°03'0 0.9
2018-May-11 10:30N 30°02' W 094°02'3 5.9
2018-May-11 10:00N 30°01' W 093°60'3 5.4
2018-May-11 09:30N 29°60' W 093°57'4 7.0
2018-May-11 08:58N 29°59' W 093°53'3 6.3
2018-May-11 08:30N 29°59' W 093°49'3 6.4
2018-May-11 08:00N 30°00' W 093°46'3 6.3
2018-May-11 07:30N 30°03' W 093°44'4 6.3
2018-May-11 06:54N 30°04' W 093°39'8 6.2
2018-May-11 05:35N 30°04' W 093°30'2 6.2
2018-May-11 05:14N 30°04' W 093°27'1 6.2
2018-May-11 05:00N 30°04' W 093°26'3 6.1
2018-May-11 04:30N 30°04' W 093°22'2 4.5
2018-May-11 04:00N 30°05' W 093°20'3 6.1
2018-May-11 03:30N 30°08' W 093°20'0 0.9
2018-May-11 03:00N 30°08' W 093°19'0 0.0
2018-May-11 02:30N 30°08' W 093°19'0 0.0
2018-May-11 02:00N 30°08' W 093°19'0 0.0
2018-May-11 01:30N 30°08' W 093°19'0 0.0
2018-May-11 01:00N 30°08' W 093°19'0 0.0
2018-May-11 00:30N 30°08' W 093°19'0 0.0
2018-May-11 00:00N 30°08' W 093°19'0 0.0
2018-May-10 23:30N 30°08' W 093°19'0 0.0
2018-May-10 23:00N 30°08' W 093°19'0 0.0
2018-May-10 22:30N 30°08' W 093°19'0 0.0
2018-May-10 22:00N 30°08' W 093°19'  

Dump ship's entire track history